sensor_id;sensor_type;location;lat;lon;timestamp;P1;durP1;ratioP1;P2;durP2;ratioP2
7074;SDS011;3578;51.568;6.932;2022-08-04T00:01:34;3.10;;;2.43;;
7074;SDS011;3578;51.568;6.932;2022-08-04T00:04:07;12.20;;;2.87;;
7074;SDS011;3578;51.568;6.932;2022-08-04T00:06:47;5.40;;;2.30;;
7074;SDS011;3578;51.568;6.932;2022-08-04T00:09:29;8.13;;;2.80;;
7074;SDS011;3578;51.568;6.932;2022-08-04T00:12:04;4.67;;;3.00;;
7074;SDS011;3578;51.568;6.932;2022-08-04T00:14:33;6.23;;;3.13;;
7074;SDS011;3578;51.568;6.932;2022-08-04T00:17:03;5.23;;;2.90;;
7074;SDS011;3578;51.568;6.932;2022-08-04T00:19:32;5.50;;;2.83;;
7074;SDS011;3578;51.568;6.932;2022-08-04T00:22:07;3.90;;;2.57;;
7074;SDS011;3578;51.568;6.932;2022-08-04T00:24:37;6.13;;;2.77;;
7074;SDS011;3578;51.568;6.932;2022-08-04T00:27:05;2.97;;;2.50;;
7074;SDS011;3578;51.568;6.932;2022-08-04T00:29:33;9.33;;;2.30;;
7074;SDS011;3578;51.568;6.932;2022-08-04T00:32:03;3.63;;;2.87;;
7074;SDS011;3578;51.568;6.932;2022-08-04T00:34:32;2.30;;;2.10;;
7074;SDS011;3578;51.568;6.932;2022-08-04T00:37:01;6.80;;;2.90;;
7074;SDS011;3578;51.568;6.932;2022-08-04T00:39:30;8.57;;;2.83;;
7074;SDS011;3578;51.568;6.932;2022-08-04T00:42:20;7.43;;;2.90;;
7074;SDS011;3578;51.568;6.932;2022-08-04T00:48:22;4.43;;;3.00;;
7074;SDS011;3578;51.568;6.932;2022-08-04T00:51:10;5.50;;;2.90;;
7074;SDS011;3578;51.568;6.932;2022-08-04T00:53:52;13.20;;;3.47;;
7074;SDS011;3578;51.568;6.932;2022-08-04T00:56:36;11.10;;;3.40;;
7074;SDS011;3578;51.568;6.932;2022-08-04T00:59:31;8.27;;;2.60;;
7074;SDS011;3578;51.568;6.932;2022-08-04T01:02:16;7.30;;;2.60;;
7074;SDS011;3578;51.568;6.932;2022-08-04T01:04:56;5.03;;;2.83;;
7074;SDS011;3578;51.568;6.932;2022-08-04T01:07:36;5.00;;;2.60;;
7074;SDS011;3578;51.568;6.932;2022-08-04T01:10:47;4.40;;;2.47;;
7074;SDS011;3578;51.568;6.932;2022-08-04T01:13:35;4.77;;;2.60;;
7074;SDS011;3578;51.568;6.932;2022-08-04T01:16:23;4.40;;;2.40;;
7074;SDS011;3578;51.568;6.932;2022-08-04T01:18:54;9.87;;;3.97;;
7074;SDS011;3578;51.568;6.932;2022-08-04T01:21:47;10.50;;;3.43;;
7074;SDS011;3578;51.568;6.932;2022-08-04T01:24:50;6.00;;;2.77;;
7074;SDS011;3578;51.568;6.932;2022-08-04T01:27:50;3.23;;;2.07;;
7074;SDS011;3578;51.568;6.932;2022-08-04T01:30:41;4.30;;;2.27;;
7074;SDS011;3578;51.568;6.932;2022-08-04T01:33:11;5.83;;;3.30;;
7074;SDS011;3578;51.568;6.932;2022-08-04T01:35:41;3.80;;;2.70;;
7074;SDS011;3578;51.568;6.932;2022-08-04T01:38:16;6.33;;;3.23;;
7074;SDS011;3578;51.568;6.932;2022-08-04T01:40:50;6.70;;;2.90;;
7074;SDS011;3578;51.568;6.932;2022-08-04T01:43:19;10.53;;;3.20;;
7074;SDS011;3578;51.568;6.932;2022-08-04T01:45:48;5.47;;;3.43;;
7074;SDS011;3578;51.568;6.932;2022-08-04T01:48:23;3.50;;;2.23;;
7074;SDS011;3578;51.568;6.932;2022-08-04T01:50:53;12.47;;;2.80;;
7074;SDS011;3578;51.568;6.932;2022-08-04T01:53:27;6.07;;;2.97;;
7074;SDS011;3578;51.568;6.932;2022-08-04T01:55:56;5.63;;;2.70;;
7074;SDS011;3578;51.568;6.932;2022-08-04T01:58:23;16.83;;;3.90;;
7074;SDS011;3578;51.568;6.932;2022-08-04T02:00:56;16.60;;;3.63;;
7074;SDS011;3578;51.568;6.932;2022-08-04T02:03:26;6.40;;;2.90;;
7074;SDS011;3578;51.568;6.932;2022-08-04T02:05:54;4.27;;;2.80;;
7074;SDS011;3578;51.568;6.932;2022-08-04T02:08:30;6.33;;;3.17;;
7074;SDS011;3578;51.568;6.932;2022-08-04T02:11:13;15.20;;;3.23;;
7074;SDS011;3578;51.568;6.932;2022-08-04T02:13:45;6.97;;;3.33;;
7074;SDS011;3578;51.568;6.932;2022-08-04T02:16:27;8.90;;;3.10;;
7074;SDS011;3578;51.568;6.932;2022-08-04T02:19:08;5.33;;;3.13;;
7074;SDS011;3578;51.568;6.932;2022-08-04T02:21:44;13.10;;;2.83;;
7074;SDS011;3578;51.568;6.932;2022-08-04T02:24:18;11.63;;;3.43;;
7074;SDS011;3578;51.568;6.932;2022-08-04T02:26:50;8.37;;;3.20;;
7074;SDS011;3578;51.568;6.932;2022-08-04T02:29:24;7.37;;;3.30;;
7074;SDS011;3578;51.568;6.932;2022-08-04T02:32:02;7.07;;;2.97;;
7074;SDS011;3578;51.568;6.932;2022-08-04T02:34:32;4.77;;;2.73;;
7074;SDS011;3578;51.568;6.932;2022-08-04T02:37:07;7.73;;;2.90;;
7074;SDS011;3578;51.568;6.932;2022-08-04T02:39:36;7.87;;;3.70;;
7074;SDS011;3578;51.568;6.932;2022-08-04T02:42:07;10.90;;;3.50;;
7074;SDS011;3578;51.568;6.932;2022-08-04T02:44:37;9.20;;;2.90;;
7074;SDS011;3578;51.568;6.932;2022-08-04T02:47:06;5.83;;;3.27;;
7074;SDS011;3578;51.568;6.932;2022-08-04T02:49:35;5.87;;;3.53;;
7074;SDS011;3578;51.568;6.932;2022-08-04T02:52:03;9.43;;;2.63;;
7074;SDS011;3578;51.568;6.932;2022-08-04T02:54:37;10.17;;;3.13;;
7074;SDS011;3578;51.568;6.932;2022-08-04T02:57:07;9.47;;;2.90;;
7074;SDS011;3578;51.568;6.932;2022-08-04T02:59:42;4.90;;;2.80;;
7074;SDS011;3578;51.568;6.932;2022-08-04T03:02:27;8.13;;;3.10;;
7074;SDS011;3578;51.568;6.932;2022-08-04T03:05:08;8.63;;;3.20;;
7074;SDS011;3578;51.568;6.932;2022-08-04T03:07:53;4.20;;;2.73;;
7074;SDS011;3578;51.568;6.932;2022-08-04T03:11:07;6.60;;;2.83;;
7074;SDS011;3578;51.568;6.932;2022-08-04T03:14:27;8.30;;;3.13;;
7074;SDS011;3578;51.568;6.932;2022-08-04T03:17:45;6.33;;;3.40;;
7074;SDS011;3578;51.568;6.932;2022-08-04T03:21:00;6.13;;;2.93;;
7074;SDS011;3578;51.568;6.932;2022-08-04T03:30:29;5.53;;;3.30;;
7074;SDS011;3578;51.568;6.932;2022-08-04T03:49:23;10.43;;;3.47;;
7074;SDS011;3578;51.568;6.932;2022-08-04T03:52:22;3.90;;;3.00;;
7074;SDS011;3578;51.568;6.932;2022-08-04T03:55:39;7.50;;;3.50;;
7074;SDS011;3578;51.568;6.932;2022-08-04T03:58:51;6.67;;;3.03;;
7074;SDS011;3578;51.568;6.932;2022-08-04T04:01:58;3.87;;;3.20;;
7074;SDS011;3578;51.568;6.932;2022-08-04T04:08:25;7.13;;;3.30;;
7074;SDS011;3578;51.568;6.932;2022-08-04T04:17:55;9.87;;;3.30;;
7074;SDS011;3578;51.568;6.932;2022-08-04T04:20:57;10.30;;;3.83;;
7074;SDS011;3578;51.568;6.932;2022-08-04T04:24:01;6.00;;;2.80;;
7074;SDS011;3578;51.568;6.932;2022-08-04T04:26:48;5.30;;;3.10;;
7074;SDS011;3578;51.568;6.932;2022-08-04T04:32:27;8.37;;;3.70;;
7074;SDS011;3578;51.568;6.932;2022-08-04T04:35:21;9.00;;;3.93;;
7074;SDS011;3578;51.568;6.932;2022-08-04T04:41:35;9.77;;;3.50;;
7074;SDS011;3578;51.568;6.932;2022-08-04T04:44:45;12.20;;;3.70;;
7074;SDS011;3578;51.568;6.932;2022-08-04T04:47:32;11.77;;;3.20;;
7074;SDS011;3578;51.568;6.932;2022-08-04T04:50:17;9.10;;;3.67;;
7074;SDS011;3578;51.568;6.932;2022-08-04T04:53:06;10.33;;;4.00;;
7074;SDS011;3578;51.568;6.932;2022-08-04T04:55:44;9.70;;;2.90;;
7074;SDS011;3578;51.568;6.932;2022-08-04T04:58:18;13.80;;;3.63;;
7074;SDS011;3578;51.568;6.932;2022-08-04T05:00:56;9.83;;;2.83;;
7074;SDS011;3578;51.568;6.932;2022-08-04T05:04:23;9.60;;;3.23;;
7074;SDS011;3578;51.568;6.932;2022-08-04T05:07:30;10.37;;;3.80;;
7074;SDS011;3578;51.568;6.932;2022-08-04T05:10:25;5.93;;;3.73;;
7074;SDS011;3578;51.568;6.932;2022-08-04T05:13:16;9.00;;;3.70;;
7074;SDS011;3578;51.568;6.932;2022-08-04T05:16:00;8.13;;;3.97;;
7074;SDS011;3578;51.568;6.932;2022-08-04T05:18:36;9.23;;;3.90;;
7074;SDS011;3578;51.568;6.932;2022-08-04T05:21:09;6.23;;;4.37;;
7074;SDS011;3578;51.568;6.932;2022-08-04T05:23:52;10.57;;;4.03;;
7074;SDS011;3578;51.568;6.932;2022-08-04T05:26:28;8.40;;;4.30;;
7074;SDS011;3578;51.568;6.932;2022-08-04T05:29:02;19.00;;;4.43;;
7074;SDS011;3578;51.568;6.932;2022-08-04T05:31:36;11.10;;;4.03;;
7074;SDS011;3578;51.568;6.932;2022-08-04T05:34:08;11.37;;;4.40;;
7074;SDS011;3578;51.568;6.932;2022-08-04T05:36:39;13.90;;;4.87;;
7074;SDS011;3578;51.568;6.932;2022-08-04T05:39:13;10.00;;;4.20;;
7074;SDS011;3578;51.568;6.932;2022-08-04T05:41:45;10.43;;;4.20;;
7074;SDS011;3578;51.568;6.932;2022-08-04T05:44:16;9.80;;;4.50;;
7074;SDS011;3578;51.568;6.932;2022-08-04T05:46:47;14.50;;;4.50;;
7074;SDS011;3578;51.568;6.932;2022-08-04T05:49:17;6.97;;;4.03;;
7074;SDS011;3578;51.568;6.932;2022-08-04T05:51:46;11.13;;;5.70;;
7074;SDS011;3578;51.568;6.932;2022-08-04T05:54:14;13.27;;;5.40;;
7074;SDS011;3578;51.568;6.932;2022-08-04T05:56:45;12.27;;;5.57;;
7074;SDS011;3578;51.568;6.932;2022-08-04T05:59:12;12.20;;;5.03;;
7074;SDS011;3578;51.568;6.932;2022-08-04T06:01:43;14.60;;;5.70;;
7074;SDS011;3578;51.568;6.932;2022-08-04T06:04:12;12.20;;;5.20;;
7074;SDS011;3578;51.568;6.932;2022-08-04T06:06:41;17.87;;;5.70;;
7074;SDS011;3578;51.568;6.932;2022-08-04T06:09:09;11.77;;;4.43;;
7074;SDS011;3578;51.568;6.932;2022-08-04T06:11:36;14.53;;;4.80;;
7074;SDS011;3578;51.568;6.932;2022-08-04T06:14:07;11.80;;;5.07;;
7074;SDS011;3578;51.568;6.932;2022-08-04T06:16:40;9.67;;;5.33;;
7074;SDS011;3578;51.568;6.932;2022-08-04T06:19:10;16.23;;;5.20;;
7074;SDS011;3578;51.568;6.932;2022-08-04T06:21:40;14.70;;;5.27;;
7074;SDS011;3578;51.568;6.932;2022-08-04T06:24:13;14.47;;;5.53;;
7074;SDS011;3578;51.568;6.932;2022-08-04T06:26:44;14.73;;;5.50;;
7074;SDS011;3578;51.568;6.932;2022-08-04T06:29:14;13.20;;;5.60;;
7074;SDS011;3578;51.568;6.932;2022-08-04T06:31:50;10.10;;;5.70;;
7074;SDS011;3578;51.568;6.932;2022-08-04T06:34:23;10.57;;;4.70;;
7074;SDS011;3578;51.568;6.932;2022-08-04T06:36:52;12.03;;;4.77;;
7074;SDS011;3578;51.568;6.932;2022-08-04T06:39:20;14.07;;;5.10;;
7074;SDS011;3578;51.568;6.932;2022-08-04T06:41:49;15.00;;;4.77;;
7074;SDS011;3578;51.568;6.932;2022-08-04T06:44:18;12.10;;;4.30;;
7074;SDS011;3578;51.568;6.932;2022-08-04T06:46:47;13.17;;;4.90;;
7074;SDS011;3578;51.568;6.932;2022-08-04T06:49:16;14.53;;;4.57;;
7074;SDS011;3578;51.568;6.932;2022-08-04T06:51:43;13.47;;;5.07;;
7074;SDS011;3578;51.568;6.932;2022-08-04T06:54:12;13.10;;;5.20;;
7074;SDS011;3578;51.568;6.932;2022-08-04T06:56:39;8.40;;;4.13;;
7074;SDS011;3578;51.568;6.932;2022-08-04T06:59:09;10.27;;;4.70;;
7074;SDS011;3578;51.568;6.932;2022-08-04T07:01:38;8.47;;;4.30;;
7074;SDS011;3578;51.568;6.932;2022-08-04T07:04:09;9.23;;;4.20;;
7074;SDS011;3578;51.568;6.932;2022-08-04T07:06:37;15.20;;;4.43;;
7074;SDS011;3578;51.568;6.932;2022-08-04T07:09:04;15.10;;;5.23;;
7074;SDS011;3578;51.568;6.932;2022-08-04T07:11:32;4.37;;;3.80;;
7074;SDS011;3578;51.568;6.932;2022-08-04T07:14:00;7.03;;;4.53;;
7074;SDS011;3578;51.568;6.932;2022-08-04T07:16:30;6.53;;;4.27;;
7074;SDS011;3578;51.568;6.932;2022-08-04T07:18:59;7.30;;;4.40;;
7074;SDS011;3578;51.568;6.932;2022-08-04T07:21:27;9.27;;;4.13;;
7074;SDS011;3578;51.568;6.932;2022-08-04T07:23:55;7.57;;;3.97;;
7074;SDS011;3578;51.568;6.932;2022-08-04T07:26:25;8.73;;;3.93;;
7074;SDS011;3578;51.568;6.932;2022-08-04T07:28:53;9.50;;;3.50;;
7074;SDS011;3578;51.568;6.932;2022-08-04T07:31:20;8.97;;;4.33;;
7074;SDS011;3578;51.568;6.932;2022-08-04T07:33:49;8.37;;;4.60;;
7074;SDS011;3578;51.568;6.932;2022-08-04T07:36:17;8.97;;;4.07;;
7074;SDS011;3578;51.568;6.932;2022-08-04T07:38:46;4.70;;;3.43;;
7074;SDS011;3578;51.568;6.932;2022-08-04T07:41:13;8.33;;;3.80;;
7074;SDS011;3578;51.568;6.932;2022-08-04T07:43:47;7.80;;;3.43;;
7074;SDS011;3578;51.568;6.932;2022-08-04T07:46:15;5.50;;;3.03;;
7074;SDS011;3578;51.568;6.932;2022-08-04T07:48:42;7.20;;;3.50;;
7074;SDS011;3578;51.568;6.932;2022-08-04T07:51:09;8.20;;;3.00;;
7074;SDS011;3578;51.568;6.932;2022-08-04T07:53:37;6.70;;;2.70;;
7074;SDS011;3578;51.568;6.932;2022-08-04T07:56:06;3.90;;;3.07;;
7074;SDS011;3578;51.568;6.932;2022-08-04T07:58:34;4.10;;;2.67;;
7074;SDS011;3578;51.568;6.932;2022-08-04T08:01:01;4.37;;;2.57;;
7074;SDS011;3578;51.568;6.932;2022-08-04T08:03:28;3.07;;;2.77;;
7074;SDS011;3578;51.568;6.932;2022-08-04T08:05:55;3.10;;;2.80;;
7074;SDS011;3578;51.568;6.932;2022-08-04T08:08:23;2.70;;;2.50;;
7074;SDS011;3578;51.568;6.932;2022-08-04T08:10:50;3.10;;;2.33;;
7074;SDS011;3578;51.568;6.932;2022-08-04T08:13:19;3.33;;;2.33;;
7074;SDS011;3578;51.568;6.932;2022-08-04T08:15:46;3.37;;;2.63;;
7074;SDS011;3578;51.568;6.932;2022-08-04T08:18:14;5.93;;;2.57;;
7074;SDS011;3578;51.568;6.932;2022-08-04T08:20:43;2.70;;;2.47;;
7074;SDS011;3578;51.568;6.932;2022-08-04T08:23:11;3.03;;;2.50;;
7074;SDS011;3578;51.568;6.932;2022-08-04T08:25:38;5.43;;;2.00;;
7074;SDS011;3578;51.568;6.932;2022-08-04T08:28:05;2.90;;;2.60;;
7074;SDS011;3578;51.568;6.932;2022-08-04T08:30:34;4.27;;;2.30;;
7074;SDS011;3578;51.568;6.932;2022-08-04T08:33:03;4.63;;;2.17;;
7074;SDS011;3578;51.568;6.932;2022-08-04T08:35:37;2.53;;;2.17;;
7074;SDS011;3578;51.568;6.932;2022-08-04T08:38:13;2.37;;;2.27;;
7074;SDS011;3578;51.568;6.932;2022-08-04T08:40:45;5.63;;;2.50;;
7074;SDS011;3578;51.568;6.932;2022-08-04T08:43:23;3.47;;;2.30;;
7074;SDS011;3578;51.568;6.932;2022-08-04T08:52:30;9.10;;;2.40;;
7074;SDS011;3578;51.568;6.932;2022-08-04T08:55:25;2.07;;;1.87;;
7074;SDS011;3578;51.568;6.932;2022-08-04T08:58:11;4.97;;;2.50;;
7074;SDS011;3578;51.568;6.932;2022-08-04T09:01:05;2.30;;;2.10;;
7074;SDS011;3578;51.568;6.932;2022-08-04T09:03:58;2.33;;;2.13;;
7074;SDS011;3578;51.568;6.932;2022-08-04T09:07:09;4.33;;;2.40;;
7074;SDS011;3578;51.568;6.932;2022-08-04T09:09:52;4.07;;;2.20;;
7074;SDS011;3578;51.568;6.932;2022-08-04T09:12:33;5.43;;;2.20;;
7074;SDS011;3578;51.568;6.932;2022-08-04T09:15:11;3.40;;;2.50;;
7074;SDS011;3578;51.568;6.932;2022-08-04T09:17:44;3.93;;;2.70;;
7074;SDS011;3578;51.568;6.932;2022-08-04T09:20:20;4.33;;;2.83;;
7074;SDS011;3578;51.568;6.932;2022-08-04T09:22:58;7.60;;;3.37;;
7074;SDS011;3578;51.568;6.932;2022-08-04T09:25:37;3.23;;;2.30;;
7074;SDS011;3578;51.568;6.932;2022-08-04T09:28:10;12.00;;;3.50;;
7074;SDS011;3578;51.568;6.932;2022-08-04T09:30:48;4.37;;;3.10;;
7074;SDS011;3578;51.568;6.932;2022-08-04T09:33:27;5.17;;;3.00;;
7074;SDS011;3578;51.568;6.932;2022-08-04T09:36:28;5.90;;;3.20;;
7074;SDS011;3578;51.568;6.932;2022-08-04T09:39:03;11.13;;;3.03;;
7074;SDS011;3578;51.568;6.932;2022-08-04T09:41:40;12.40;;;3.80;;
7074;SDS011;3578;51.568;6.932;2022-08-04T09:44:18;9.13;;;3.07;;
7074;SDS011;3578;51.568;6.932;2022-08-04T09:46:56;8.67;;;3.70;;
7074;SDS011;3578;51.568;6.932;2022-08-04T09:49:32;8.30;;;3.50;;
7074;SDS011;3578;51.568;6.932;2022-08-04T09:52:10;4.10;;;3.03;;
7074;SDS011;3578;51.568;6.932;2022-08-04T09:54:52;8.17;;;3.70;;
7074;SDS011;3578;51.568;6.932;2022-08-04T09:57:35;6.03;;;2.77;;
7074;SDS011;3578;51.568;6.932;2022-08-04T10:00:15;10.60;;;3.00;;
7074;SDS011;3578;51.568;6.932;2022-08-04T10:02:46;6.00;;;3.20;;
7074;SDS011;3578;51.568;6.932;2022-08-04T10:05:19;6.80;;;3.03;;
7074;SDS011;3578;51.568;6.932;2022-08-04T10:07:56;4.70;;;2.60;;
7074;SDS011;3578;51.568;6.932;2022-08-04T10:10:46;9.60;;;2.77;;
7074;SDS011;3578;51.568;6.932;2022-08-04T10:13:28;2.87;;;2.60;;
7074;SDS011;3578;51.568;6.932;2022-08-04T10:16:22;7.33;;;2.90;;
7074;SDS011;3578;51.568;6.932;2022-08-04T10:19:06;7.63;;;2.67;;
7074;SDS011;3578;51.568;6.932;2022-08-04T10:21:51;9.23;;;2.83;;
7074;SDS011;3578;51.568;6.932;2022-08-04T10:24:35;5.03;;;1.97;;
7074;SDS011;3578;51.568;6.932;2022-08-04T10:27:20;9.00;;;1.93;;
7074;SDS011;3578;51.568;6.932;2022-08-04T10:29:56;4.53;;;1.63;;
7074;SDS011;3578;51.568;6.932;2022-08-04T10:32:34;7.43;;;1.90;;
7074;SDS011;3578;51.568;6.932;2022-08-04T10:35:12;2.80;;;2.10;;
7074;SDS011;3578;51.568;6.932;2022-08-04T10:37:43;2.93;;;1.70;;
7074;SDS011;3578;51.568;6.932;2022-08-04T10:40:22;6.60;;;2.10;;
7074;SDS011;3578;51.568;6.932;2022-08-04T10:43:05;2.73;;;1.60;;
7074;SDS011;3578;51.568;6.932;2022-08-04T10:45:48;11.20;;;1.90;;
7074;SDS011;3578;51.568;6.932;2022-08-04T10:48:21;4.57;;;1.83;;
7074;SDS011;3578;51.568;6.932;2022-08-04T10:51:01;4.07;;;2.20;;
7074;SDS011;3578;51.568;6.932;2022-08-04T10:53:40;2.00;;;1.80;;
7074;SDS011;3578;51.568;6.932;2022-08-04T10:56:12;10.73;;;2.57;;
7074;SDS011;3578;51.568;6.932;2022-08-04T10:58:45;5.37;;;1.80;;
7074;SDS011;3578;51.568;6.932;2022-08-04T11:01:21;5.50;;;2.47;;
7074;SDS011;3578;51.568;6.932;2022-08-04T11:03:54;8.37;;;1.70;;
7074;SDS011;3578;51.568;6.932;2022-08-04T11:06:25;5.23;;;1.87;;
7074;SDS011;3578;51.568;6.932;2022-08-04T11:08:53;10.60;;;2.10;;
7074;SDS011;3578;51.568;6.932;2022-08-04T11:11:25;4.33;;;1.63;;
7074;SDS011;3578;51.568;6.932;2022-08-04T11:13:59;8.17;;;1.90;;
7074;SDS011;3578;51.568;6.932;2022-08-04T11:16:32;4.70;;;2.13;;
7074;SDS011;3578;51.568;6.932;2022-08-04T11:19:08;4.37;;;1.97;;
7074;SDS011;3578;51.568;6.932;2022-08-04T11:21:46;4.60;;;2.13;;
7074;SDS011;3578;51.568;6.932;2022-08-04T11:24:21;14.37;;;2.97;;
7074;SDS011;3578;51.568;6.932;2022-08-04T11:27:03;6.13;;;2.03;;
7074;SDS011;3578;51.568;6.932;2022-08-04T11:29:39;4.63;;;2.07;;
7074;SDS011;3578;51.568;6.932;2022-08-04T11:32:16;4.80;;;2.40;;
7074;SDS011;3578;51.568;6.932;2022-08-04T11:34:47;5.07;;;1.73;;
7074;SDS011;3578;51.568;6.932;2022-08-04T11:37:24;3.50;;;2.00;;
7074;SDS011;3578;51.568;6.932;2022-08-04T11:40:03;7.77;;;2.20;;
7074;SDS011;3578;51.568;6.932;2022-08-04T11:42:41;6.00;;;2.37;;
7074;SDS011;3578;51.568;6.932;2022-08-04T11:45:23;4.80;;;1.87;;
7074;SDS011;3578;51.568;6.932;2022-08-04T11:47:56;6.83;;;1.73;;
7074;SDS011;3578;51.568;6.932;2022-08-04T11:50:31;3.27;;;2.00;;
7074;SDS011;3578;51.568;6.932;2022-08-04T11:53:05;3.80;;;1.70;;
7074;SDS011;3578;51.568;6.932;2022-08-04T11:55:37;3.77;;;1.80;;
7074;SDS011;3578;51.568;6.932;2022-08-04T11:58:06;4.10;;;1.97;;
7074;SDS011;3578;51.568;6.932;2022-08-04T12:00:33;9.83;;;1.70;;
7074;SDS011;3578;51.568;6.932;2022-08-04T12:03:14;1.60;;;1.50;;
7074;SDS011;3578;51.568;6.932;2022-08-04T12:05:54;5.87;;;1.80;;
7074;SDS011;3578;51.568;6.932;2022-08-04T12:08:39;10.70;;;2.80;;
7074;SDS011;3578;51.568;6.932;2022-08-04T12:11:21;5.00;;;2.17;;
7074;SDS011;3578;51.568;6.932;2022-08-04T12:14:08;5.03;;;2.07;;
7074;SDS011;3578;51.568;6.932;2022-08-04T12:16:47;6.50;;;2.17;;
7074;SDS011;3578;51.568;6.932;2022-08-04T12:19:25;4.10;;;2.43;;
7074;SDS011;3578;51.568;6.932;2022-08-04T12:22:00;3.13;;;2.00;;
7074;SDS011;3578;51.568;6.932;2022-08-04T12:24:35;5.20;;;2.27;;
7074;SDS011;3578;51.568;6.932;2022-08-04T12:27:10;5.90;;;2.83;;
7074;SDS011;3578;51.568;6.932;2022-08-04T12:29:43;5.60;;;2.50;;
7074;SDS011;3578;51.568;6.932;2022-08-04T12:32:15;13.33;;;2.40;;
7074;SDS011;3578;51.568;6.932;2022-08-04T12:34:48;4.70;;;2.43;;
7074;SDS011;3578;51.568;6.932;2022-08-04T12:37:28;6.53;;;2.30;;
7074;SDS011;3578;51.568;6.932;2022-08-04T12:40:07;9.63;;;2.30;;
7074;SDS011;3578;51.568;6.932;2022-08-04T12:42:43;7.37;;;2.87;;
7074;SDS011;3578;51.568;6.932;2022-08-04T12:45:23;9.50;;;2.43;;
7074;SDS011;3578;51.568;6.932;2022-08-04T12:47:51;2.90;;;1.80;;
7074;SDS011;3578;51.568;6.932;2022-08-04T12:50:23;5.60;;;2.70;;
7074;SDS011;3578;51.568;6.932;2022-08-04T12:52:51;4.80;;;2.27;;
7074;SDS011;3578;51.568;6.932;2022-08-04T12:55:22;7.60;;;2.50;;
7074;SDS011;3578;51.568;6.932;2022-08-04T12:57:53;7.03;;;2.50;;
7074;SDS011;3578;51.568;6.932;2022-08-04T13:00:25;5.73;;;2.13;;
7074;SDS011;3578;51.568;6.932;2022-08-04T13:02:57;8.90;;;2.70;;
7074;SDS011;3578;51.568;6.932;2022-08-04T13:05:30;5.50;;;2.00;;
7074;SDS011;3578;51.568;6.932;2022-08-04T13:07:58;3.73;;;2.47;;
7074;SDS011;3578;51.568;6.932;2022-08-04T13:10:29;11.20;;;2.47;;
7074;SDS011;3578;51.568;6.932;2022-08-04T13:13:02;3.70;;;2.10;;
7074;SDS011;3578;51.568;6.932;2022-08-04T13:15:31;3.33;;;2.30;;
7074;SDS011;3578;51.568;6.932;2022-08-04T13:17:59;3.83;;;2.17;;
7074;SDS011;3578;51.568;6.932;2022-08-04T13:20:29;3.37;;;2.37;;
7074;SDS011;3578;51.568;6.932;2022-08-04T13:22:59;7.33;;;2.07;;
7074;SDS011;3578;51.568;6.932;2022-08-04T13:25:31;9.23;;;2.50;;
7074;SDS011;3578;51.568;6.932;2022-08-04T13:28:04;4.10;;;2.20;;
7074;SDS011;3578;51.568;6.932;2022-08-04T13:30:39;9.30;;;2.53;;
7074;SDS011;3578;51.568;6.932;2022-08-04T13:33:09;3.50;;;2.20;;
7074;SDS011;3578;51.568;6.932;2022-08-04T13:35:40;2.47;;;1.90;;
7074;SDS011;3578;51.568;6.932;2022-08-04T13:38:10;3.50;;;2.53;;
7074;SDS011;3578;51.568;6.932;2022-08-04T13:40:38;8.00;;;2.77;;
7074;SDS011;3578;51.568;6.932;2022-08-04T13:43:08;6.73;;;2.33;;
7074;SDS011;3578;51.568;6.932;2022-08-04T13:45:49;8.20;;;2.00;;
7074;SDS011;3578;51.568;6.932;2022-08-04T13:48:23;2.83;;;2.33;;
7074;SDS011;3578;51.568;6.932;2022-08-04T13:50:50;5.13;;;2.50;;
7074;SDS011;3578;51.568;6.932;2022-08-04T13:53:18;9.43;;;2.40;;
7074;SDS011;3578;51.568;6.932;2022-08-04T13:55:45;2.20;;;2.00;;
7074;SDS011;3578;51.568;6.932;2022-08-04T13:58:17;4.07;;;2.13;;
7074;SDS011;3578;51.568;6.932;2022-08-04T14:00:51;10.07;;;2.63;;
7074;SDS011;3578;51.568;6.932;2022-08-04T14:03:25;4.07;;;2.20;;
7074;SDS011;3578;51.568;6.932;2022-08-04T14:06:13;4.30;;;1.90;;
7074;SDS011;3578;51.568;6.932;2022-08-04T14:08:47;4.03;;;2.23;;
7074;SDS011;3578;51.568;6.932;2022-08-04T14:11:18;3.37;;;2.40;;
7074;SDS011;3578;51.568;6.932;2022-08-04T14:13:48;4.80;;;1.93;;
7074;SDS011;3578;51.568;6.932;2022-08-04T14:16:18;8.33;;;2.30;;
7074;SDS011;3578;51.568;6.932;2022-08-04T14:18:46;5.87;;;2.17;;
7074;SDS011;3578;51.568;6.932;2022-08-04T14:21:22;4.90;;;2.03;;
7074;SDS011;3578;51.568;6.932;2022-08-04T14:23:50;4.20;;;1.77;;
7074;SDS011;3578;51.568;6.932;2022-08-04T14:26:20;4.37;;;2.07;;
7074;SDS011;3578;51.568;6.932;2022-08-04T14:28:54;2.90;;;1.77;;
7074;SDS011;3578;51.568;6.932;2022-08-04T14:31:32;6.90;;;2.10;;
7074;SDS011;3578;51.568;6.932;2022-08-04T14:34:00;4.63;;;2.10;;
7074;SDS011;3578;51.568;6.932;2022-08-04T14:36:27;11.03;;;1.83;;
7074;SDS011;3578;51.568;6.932;2022-08-04T14:39:06;5.10;;;1.70;;
7074;SDS011;3578;51.568;6.932;2022-08-04T14:41:42;6.03;;;2.13;;
7074;SDS011;3578;51.568;6.932;2022-08-04T14:44:12;2.50;;;1.43;;
7074;SDS011;3578;51.568;6.932;2022-08-04T14:46:49;3.50;;;1.73;;
7074;SDS011;3578;51.568;6.932;2022-08-04T14:49:18;3.17;;;1.80;;
7074;SDS011;3578;51.568;6.932;2022-08-04T14:51:51;3.43;;;2.13;;
7074;SDS011;3578;51.568;6.932;2022-08-04T14:54:25;4.97;;;1.83;;
7074;SDS011;3578;51.568;6.932;2022-08-04T14:56:55;2.70;;;1.70;;
7074;SDS011;3578;51.568;6.932;2022-08-04T14:59:24;3.43;;;2.10;;
7074;SDS011;3578;51.568;6.932;2022-08-04T15:01:53;7.80;;;1.87;;
7074;SDS011;3578;51.568;6.932;2022-08-04T15:04:22;2.00;;;1.90;;
7074;SDS011;3578;51.568;6.932;2022-08-04T15:06:50;3.47;;;2.00;;
7074;SDS011;3578;51.568;6.932;2022-08-04T15:09:17;6.60;;;1.80;;
7074;SDS011;3578;51.568;6.932;2022-08-04T15:11:46;2.10;;;1.90;;
7074;SDS011;3578;51.568;6.932;2022-08-04T15:14:13;4.37;;;1.90;;
7074;SDS011;3578;51.568;6.932;2022-08-04T15:16:40;5.50;;;2.40;;
7074;SDS011;3578;51.568;6.932;2022-08-04T15:19:09;4.60;;;2.03;;
7074;SDS011;3578;51.568;6.932;2022-08-04T15:21:37;6.50;;;2.37;;
7074;SDS011;3578;51.568;6.932;2022-08-04T15:24:06;4.70;;;1.90;;
7074;SDS011;3578;51.568;6.932;2022-08-04T15:26:34;1.63;;;1.53;;
7074;SDS011;3578;51.568;6.932;2022-08-04T15:29:07;2.50;;;1.67;;
7074;SDS011;3578;51.568;6.932;2022-08-04T15:31:40;2.73;;;1.53;;
7074;SDS011;3578;51.568;6.932;2022-08-04T15:34:11;3.13;;;1.90;;
7074;SDS011;3578;51.568;6.932;2022-08-04T15:36:41;4.73;;;1.90;;
7074;SDS011;3578;51.568;6.932;2022-08-04T15:39:21;2.93;;;1.70;;
7074;SDS011;3578;51.568;6.932;2022-08-04T15:41:59;6.13;;;2.40;;
7074;SDS011;3578;51.568;6.932;2022-08-04T15:47:54;4.33;;;2.60;;
7074;SDS011;3578;51.568;6.932;2022-08-04T15:51:00;2.97;;;2.00;;
7074;SDS011;3578;51.568;6.932;2022-08-04T15:56:48;2.53;;;1.70;;
7074;SDS011;3578;51.568;6.932;2022-08-04T15:59:23;2.50;;;1.97;;
7074;SDS011;3578;51.568;6.932;2022-08-04T16:02:28;4.03;;;1.93;;
7074;SDS011;3578;51.568;6.932;2022-08-04T16:08:13;4.80;;;1.93;;
7074;SDS011;3578;51.568;6.932;2022-08-04T16:10:42;3.90;;;1.90;;
7074;SDS011;3578;51.568;6.932;2022-08-04T16:13:13;2.50;;;2.30;;
7074;SDS011;3578;51.568;6.932;2022-08-04T16:15:44;3.53;;;1.97;;
7074;SDS011;3578;51.568;6.932;2022-08-04T16:18:19;4.70;;;2.00;;
7074;SDS011;3578;51.568;6.932;2022-08-04T16:21:15;8.83;;;2.07;;
7074;SDS011;3578;51.568;6.932;2022-08-04T16:23:49;6.00;;;2.00;;
7074;SDS011;3578;51.568;6.932;2022-08-04T16:26:46;1.63;;;1.53;;
7074;SDS011;3578;51.568;6.932;2022-08-04T16:29:36;4.87;;;2.13;;
7074;SDS011;3578;51.568;6.932;2022-08-04T16:32:11;5.43;;;2.53;;
7074;SDS011;3578;51.568;6.932;2022-08-04T16:34:47;4.67;;;2.10;;
7074;SDS011;3578;51.568;6.932;2022-08-04T16:37:21;8.00;;;2.57;;
7074;SDS011;3578;51.568;6.932;2022-08-04T16:42:57;6.80;;;2.70;;
7074;SDS011;3578;51.568;6.932;2022-08-04T16:48:23;2.13;;;1.93;;
7074;SDS011;3578;51.568;6.932;2022-08-04T16:50:55;6.37;;;2.63;;
7074;SDS011;3578;51.568;6.932;2022-08-04T16:53:31;5.70;;;2.30;;
7074;SDS011;3578;51.568;6.932;2022-08-04T16:56:01;2.87;;;2.30;;
7074;SDS011;3578;51.568;6.932;2022-08-04T16:58:30;6.27;;;2.63;;
7074;SDS011;3578;51.568;6.932;2022-08-04T17:01:05;5.90;;;2.07;;
7074;SDS011;3578;51.568;6.932;2022-08-04T17:03:35;4.00;;;2.67;;
7074;SDS011;3578;51.568;6.932;2022-08-04T17:06:09;6.30;;;2.87;;
7074;SDS011;3578;51.568;6.932;2022-08-04T17:08:40;5.03;;;3.07;;
7074;SDS011;3578;51.568;6.932;2022-08-04T17:11:07;4.83;;;2.83;;
7074;SDS011;3578;51.568;6.932;2022-08-04T17:13:35;4.07;;;2.43;;